Swansea, SC

3:23 PM EDT on September 20, 2014 (GMT -0400)
Gaston SC | Change Station
CLOSE
Current Station
Personal Weather Station
Location: Gaston, SC
Elevation: 436 ft
Nearby Weather Stations

Elev 436 ft 33.80 °N, 81.12 °W | Updated 9 minutes ago

Mostly Cloudy
Mostly Cloudy
79.5 °F
Feels Like 81 °F
N
7.3
Wind Variable Wind from NE

Today
High -- | Low -- °F
--% Chance of Precip.
Yesterday
High -- | Low -- °F
Precip. -- in
7:11 AM 7:23 PM
Waning Crescent, 11% visible
Pressure 30.05 in
Visibility 10.0 miles
Clouds Mostly Cloudy 15000 ft
Heat Index 81 °F
Dew Point 61 °F
Humidity 54%
Rainfall 0.00 in
Snow Depth Not available.
UV 4 out of 12
Pollen 8.10 out of 12
Ozone Good
Flu Activity Not available.
METAR KCAE 201856Z 05011G16KT 10SM BKN150 27/14 A3005 RMK AO2 SLP174 T02720144

More Conditions Fewer Conditions

Pressure 30.05 in
Visibility 10.0 miles
Clouds Mostly Cloudy 15000 ft
Heat Index 81 °F
Dew Point 61 °F
Humidity 54%
Rainfall 0.00 in
Snow Depth Not available.
UV 4 out of 12
Pollen 8.10 out of 12
Ozone Good
Flu Activity Not available.
METAR KCAE 201856Z 05011G16KT 10SM BKN150 27/14 A3005 RMK AO2 SLP174 T02720144

More Conditions Fewer Conditions

10-Day Weather Forecast

Almanac

Astronomy

Sep. 20, 2014 Rise Set
Actual Time 7:11 AM EDT 7:23 PM EDT
Civil Twilight 6:46 AM EDT 7:48 PM EDT
Nautical Twilight 6:17 AM EDT 8:17 PM EDT
Astronomical Twilight 5:47 AM EDT 8:47 PM EDT
Moon 3:56 AM EDT 5:20 PM EDT
Length of Visible Light 13h 02m
Length of Day
12h 12m
Tomorrow will be 2m 5s shorter.
Waning Crescent, 11% of the Moon is Illuminated
Today
Waning Crescent
Sep 24
New
Oct 1
First Quarter
Oct 8
Full
Oct 15
Last Quarter

Today's Extremes

State Highs State Lows

Community

WunderPhotos

Upload Photos

1,754,927 photos uploaded!

WunderBlogs® & News

Nearby

Air Quality

  Air Quality AQ Index Pollutant
Yesterday Good
OZONE
Current Good
OZONE
Saturday Good
OZONE

Snow Depth

Station Depth Elevation
No new snow has been reported.

Earthquake Activity

City Distance Mag. Time & Date
New Ellenton, South Carolina 40 miles 2.6 4:38 PM EDT
2014-09-19
Minimum magnitude displayed is 2.5.

Coastal Water Temperatures

Place Temperature
No Stations Reporting

Nearby Weather Stations